Time;durP1;ratioP1;P1;durP2;ratioP2;P2;SDS_P1;SDS_P2;PMS_P1;PMS_P2;Temp;Humidity;BMP_temperature;BMP_pressure;BME280_temperature;BME280_humidity;BME280_pressure;Samples;Min_cycle;Max_cycle;Signal;HPM_P1;HPM_P2
2023/12/02 00:01:58;;;;;;;12.02;4.05;;;10.40;99.90;;;;;;4994335;28;20420;-74
2023/12/02 00:04:24;;;;;;;13.93;5.13;;;10.30;99.90;;;;;;4994404;28;20065;-74
2023/12/02 00:06:50;;;;;;;196.20;29.52;;;10.50;99.90;;;;;;4995246;28;20479;-74
2023/12/02 00:09:16;;;;;;;13.82;5.45;;;8.50;99.90;;;;;;4994858;28;20457;-74
2023/12/02 00:11:42;;;;;;;8.95;3.85;;;8.20;99.90;;;;;;4994671;28;20588;-74
2023/12/02 00:14:08;;;;;;;13.23;4.22;;;9.50;99.90;;;;;;4993733;28;20061;-73
2023/12/02 00:16:33;;;;;;;18.25;6.13;;;9.80;99.90;;;;;;4993272;28;20029;-74
2023/12/02 00:18:59;;;;;;;9.18;3.45;;;9.90;99.90;;;;;;4994502;28;20038;-74
2023/12/02 00:21:25;;;;;;;12.75;5.72;;;10.60;99.90;;;;;;4995214;28;20026;-74
2023/12/02 00:23:50;;;;;;;12.15;5.50;;;10.30;99.90;;;;;;4995174;28;20088;-74
2023/12/02 00:26:16;;;;;;;612.83;75.68;;;10.60;99.90;;;;;;4995018;28;20030;-74
2023/12/02 00:28:41;;;;;;;246.27;33.40;;;9.40;99.90;;;;;;4995481;28;20022;-73
2023/12/02 00:31:07;;;;;;;64.90;14.90;;;7.70;99.90;;;;;;4997385;28;20604;-74
2023/12/02 00:33:33;;;;;;;14.48;5.22;;;6.90;99.90;;;;;;4996174;28;20496;-74
2023/12/02 00:35:59;;;;;;;13.73;8.05;;;6.80;99.90;;;;;;4995242;28;20042;-73
2023/12/02 00:38:24;;;;;;;9.27;3.55;;;7.10;99.90;;;;;;4995211;28;20128;-74
2023/12/02 00:40:50;;;;;;;10.30;2.92;;;9.00;99.90;;;;;;4994348;28;20731;-74
2023/12/02 00:43:16;;;;;;;314.77;44.55;;;9.80;99.90;;;;;;4995067;28;20873;-74
2023/12/02 00:45:41;;;;;;;49.72;10.02;;;8.60;99.90;;;;;;4995062;28;20582;-74
2023/12/02 00:48:07;;;;;;;8.85;3.85;;;7.30;99.90;;;;;;4995064;28;20136;-74
2023/12/02 00:50:33;;;;;;;6.88;2.50;;;8.00;99.90;;;;;;4994259;28;20045;-74
2023/12/02 00:52:59;;;;;;;12.90;3.67;;;9.20;99.90;;;;;;4994770;28;20616;-74
2023/12/02 00:55:24;;;;;;;21.38;4.82;;;9.70;99.90;;;;;;4994399;28;20113;-74
2023/12/02 00:57:50;;;;;;;321.10;41.33;;;9.60;99.90;;;;;;4998707;28;20041;-74
2023/12/02 01:00:16;;;;;;;175.88;24.80;;;8.10;99.90;;;;;;4999005;28;20484;-74
2023/12/02 01:02:42;;;;;;;180.65;26.77;;;7.40;99.90;;;;;;4999122;28;20510;-74
2023/12/02 01:05:08;;;;;;;167.45;21.45;;;6.90;99.90;;;;;;4998867;28;20060;-73
2023/12/02 01:07:34;;;;;;;7.88;3.28;;;6.70;99.90;;;;;;4999408;28;20034;-73
2023/12/02 01:10:00;;;;;;;12.85;6.35;;;6.60;99.90;;;;;;4998759;28;20037;-74
2023/12/02 01:12:25;;;;;;;5.55;3.22;;;7.00;99.90;;;;;;4998209;28;20480;-73
2023/12/02 01:14:52;;;;;;;6.15;3.30;;;7.00;99.90;;;;;;4999600;28;20025;-74
2023/12/02 01:17:17;;;;;;;5.85;3.03;;;7.20;99.90;;;;;;5001934;28;20067;-73
2023/12/02 01:19:44;;;;;;;91.65;13.07;;;7.10;99.90;;;;;;5002817;28;20116;-74
2023/12/02 01:22:10;;;;;;;7.20;2.60;;;6.70;99.90;;;;;;5001838;28;20026;-74
2023/12/02 01:24:35;;;;;;;5.70;2.75;;;6.60;99.90;;;;;;5005012;28;20034;-73
2023/12/02 01:27:01;;;;;;;5.93;2.97;;;6.90;99.90;;;;;;5002714;28;20034;-74
2023/12/02 01:29:27;;;;;;;7.93;3.90;;;7.00;99.90;;;;;;5002635;28;20483;-73
2023/12/02 01:31:53;;;;;;;33.63;6.60;;;7.30;99.90;;;;;;5002304;28;20596;-74
2023/12/02 01:34:18;;;;;;;27.92;5.43;;;6.80;99.90;;;;;;5001963;28;20026;-73
2023/12/02 01:36:47;;;;;;;44.30;8.45;;;6.60;99.90;;;;;;5002451;28;20032;-73
2023/12/02 01:39:13;;;;;;;57.70;8.20;;;6.60;99.90;;;;;;5002057;28;20065;-73
2023/12/02 01:41:39;;;;;;;7.55;2.08;;;6.50;99.90;;;;;;5002013;28;20057;-74
2023/12/02 01:44:05;;;;;;;3.88;2.17;;;6.70;99.90;;;;;;5002478;28;20037;-73
2023/12/02 01:46:30;;;;;;;69.45;13.10;;;7.10;99.90;;;;;;5002629;28;20375;-74
2023/12/02 01:49:00;;;;;;;213.52;26.70;;;6.70;99.90;;;;;;5001560;28;20088;-74
2023/12/02 01:51:27;;;;;;;100.55;15.05;;;6.40;99.90;;;;;;5001767;28;20449;-74
2023/12/02 01:53:53;;;;;;;4.00;2.30;;;6.30;99.90;;;;;;5001838;28;20125;-73
2023/12/02 01:56:19;;;;;;;3.83;2.08;;;6.40;99.90;;;;;;5000916;28;20048;-73
2023/12/02 01:58:47;;;;;;;4.18;2.20;;;6.40;99.90;;;;;;5002654;28;20128;-74
2023/12/02 02:01:12;;;;;;;4.30;2.45;;;6.50;99.90;;;;;;5002173;28;20037;-74
2023/12/02 02:03:39;;;;;;;3.90;2.15;;;6.60;99.90;;;;;;5002213;28;20050;-74
2023/12/02 02:06:05;;;;;;;4.80;3.00;;;6.60;99.90;;;;;;5001819;28;20053;-74
2023/12/02 02:08:31;;;;;;;97.88;16.45;;;6.60;99.90;;;;;;5001690;28;20046;-74
2023/12/02 02:10:58;;;;;;;5.53;2.58;;;6.50;99.90;;;;;;5001338;28;20053;-74
2023/12/02 02:13:24;;;;;;;3.90;2.20;;;6.50;99.90;;;;;;5001928;28;20520;-74
2023/12/02 02:15:50;;;;;;;4.13;2.15;;;6.60;99.90;;;;;;5001874;28;20040;-74
2023/12/02 02:18:15;;;;;;;4.35;2.30;;;6.70;99.90;;;;;;5001386;28;20029;-74
2023/12/02 02:20:41;;;;;;;3.72;2.38;;;6.70;99.90;;;;;;5000718;28;20077;-74
2023/12/02 02:23:07;;;;;;;4.82;2.42;;;6.70;99.90;;;;;;5001480;28;20459;-73
2023/12/02 02:25:32;;;;;;;3.80;2.30;;;6.70;99.90;;;;;;5001119;28;20096;-74
2023/12/02 02:27:58;;;;;;;3.83;2.20;;;6.70;99.90;;;;;;5001207;28;20527;-73
2023/12/02 02:30:25;;;;;;;4.13;2.42;;;6.70;99.90;;;;;;5001623;28;20042;-73
2023/12/02 02:32:50;;;;;;;12.77;3.80;;;6.70;99.90;;;;;;5001488;28;20033;-73
2023/12/02 02:35:16;;;;;;;4.28;2.50;;;6.60;99.90;;;;;;5001510;28;20366;-73
2023/12/02 02:37:42;;;;;;;6.80;3.58;;;6.60;99.90;;;;;;5001446;28;20119;-73
2023/12/02 02:40:08;;;;;;;181.48;25.65;;;6.70;99.90;;;;;;5000346;28;20037;-73
2023/12/02 02:42:34;;;;;;;26.90;6.65;;;6.60;99.90;;;;;;5001139;28;20040;-73
2023/12/02 02:44:59;;;;;;;4.15;2.45;;;6.60;99.90;;;;;;5001303;28;20034;-73
2023/12/02 02:47:25;;;;;;;5.50;2.33;;;6.60;99.90;;;;;;5001678;28;20040;-74
2023/12/02 02:49:50;;;;;;;4.63;2.65;;;6.70;99.90;;;;;;5000879;28;20674;-73
2023/12/02 02:52:17;;;;;;;5.03;2.00;;;6.70;99.90;;;;;;5001031;28;20061;-74
2023/12/02 02:54:43;;;;;;;3.72;2.35;;;6.70;99.90;;;;;;5001078;28;20021;-73
2023/12/02 02:57:09;;;;;;;2.92;2.08;;;6.80;99.90;;;;;;5000894;28;20037;-73
2023/12/02 02:59:35;;;;;;;3.85;1.65;;;6.80;99.90;;;;;;5001149;28;20087;-74
2023/12/02 03:02:00;;;;;;;4.72;2.30;;;6.70;99.90;;;;;;5000763;28;20053;-73
2023/12/02 03:04:26;;;;;;;3.22;1.75;;;6.70;99.90;;;;;;5000391;28;20057;-73
2023/12/02 03:06:52;;;;;;;4.28;2.63;;;6.70;99.90;;;;;;5001345;28;20452;-73
2023/12/02 03:09:18;;;;;;;3.17;1.83;;;6.70;99.90;;;;;;5000226;28;20120;-73
2023/12/02 03:11:46;;;;;;;14.68;2.75;;;6.80;99.90;;;;;;5000658;28;20034;-74
2023/12/02 03:14:11;;;;;;;3.83;2.20;;;6.80;99.90;;;;;;5001040;28;20030;-73
2023/12/02 03:16:37;;;;;;;3.92;2.00;;;6.70;99.90;;;;;;5000285;28;20113;-74
2023/12/02 03:19:04;;;;;;;4.18;2.22;;;6.70;99.90;;;;;;5000331;28;20084;-73
2023/12/02 03:21:30;;;;;;;3.83;1.90;;;6.80;99.90;;;;;;5000282;28;20022;-73
2023/12/02 03:23:55;;;;;;;6.55;2.60;;;6.80;99.90;;;;;;5000435;28;20083;-73
2023/12/02 03:26:23;;;;;;;4.35;2.95;;;6.70;99.90;;;;;;4999755;28;20028;-74
2023/12/02 03:28:49;;;;;;;4.28;2.85;;;6.70;99.90;;;;;;5000540;28;20022;-74
2023/12/02 03:31:14;;;;;;;4.03;2.00;;;6.70;99.90;;;;;;4999975;28;20053;-73
2023/12/02 03:33:40;;;;;;;3.55;1.65;;;6.80;99.90;;;;;;5000666;28;20026;-74
2023/12/02 03:36:06;;;;;;;6.65;2.40;;;6.80;99.90;;;;;;4999813;28;20034;-74
2023/12/02 03:38:32;;;;;;;2.85;1.60;;;6.70;99.90;;;;;;4998930;28;20038;-73
2023/12/02 03:40:59;;;;;;;3.22;2.10;;;6.70;99.90;;;;;;4999609;28;20052;-73
2023/12/02 03:43:25;;;;;;;3.42;1.80;;;6.70;99.90;;;;;;5000454;28;20383;-74
2023/12/02 03:45:50;;;;;;;3.97;2.30;;;6.80;99.90;;;;;;5000667;28;20026;-74
2023/12/02 03:48:16;;;;;;;3.17;1.63;;;6.80;99.90;;;;;;4999732;28;20095;-73
2023/12/02 03:50:42;;;;;;;3.30;1.83;;;6.80;99.90;;;;;;5000063;28;20099;-74
2023/12/02 03:53:07;;;;;;;5.63;3.15;;;6.80;99.90;;;;;;5000749;28;20029;-73
2023/12/02 03:55:33;;;;;;;5.72;2.58;;;6.90;99.90;;;;;;5000044;28;20069;-73
2023/12/02 03:57:59;;;;;;;3.60;2.40;;;6.70;99.90;;;;;;4999857;28;20616;-73
2023/12/02 04:00:27;;;;;;;3.58;2.00;;;6.70;99.90;;;;;;4998616;28;20434;-74
2023/12/02 04:02:52;;;;;;;4.80;2.80;;;6.70;99.90;;;;;;4998310;28;20034;-73
2023/12/02 04:05:18;;;;;;;4.07;2.80;;;6.80;99.90;;;;;;4995374;28;20372;-74
2023/12/02 04:07:44;;;;;;;4.70;2.80;;;6.80;99.90;;;;;;4994103;28;20022;-73
2023/12/02 04:10:09;;;;;;;4.10;2.35;;;6.80;99.90;;;;;;4994437;28;20077;-73
2023/12/02 04:12:35;;;;;;;4.60;1.50;;;6.80;99.90;;;;;;4995405;28;20026;-73
2023/12/02 04:15:01;;;;;;;5.10;1.95;;;6.70;99.90;;;;;;4994268;28;20514;-73
2023/12/02 04:17:27;;;;;;;2.65;1.45;;;6.80;99.90;;;;;;4993309;28;20033;-73
2023/12/02 04:19:52;;;;;;;4.07;1.60;;;6.70;99.90;;;;;;4992409;28;21323;-74
2023/12/02 04:22:19;;;;;;;1.98;0.88;;;6.80;99.90;;;;;;4992517;28;20037;-73
2023/12/02 04:24:45;;;;;;;2.92;1.60;;;6.80;99.90;;;;;;4993796;28;21063;-74
2023/12/02 04:27:11;;;;;;;3.40;1.60;;;6.90;99.90;;;;;;4994981;28;20061;-74
2023/12/02 04:29:41;;;;;;;3.00;1.90;;;6.90;99.90;;;;;;4994402;28;20611;-74
2023/12/02 04:32:08;;;;;;;3.80;1.70;;;6.90;99.90;;;;;;4994997;28;21696;-74
2023/12/02 04:34:34;;;;;;;3.35;1.90;;;6.90;99.90;;;;;;4995437;28;20057;-73
2023/12/02 04:37:00;;;;;;;2.85;1.23;;;6.90;99.90;;;;;;4993365;28;20092;-74
2023/12/02 04:39:25;;;;;;;3.45;2.00;;;6.80;99.90;;;;;;4992582;28;20045;-74
2023/12/02 04:41:51;;;;;;;3.05;1.67;;;6.90;99.90;;;;;;4992808;28;20530;-73
2023/12/02 04:44:17;;;;;;;3.00;1.50;;;6.80;99.90;;;;;;4992262;28;20026;-73
2023/12/02 04:46:43;;;;;;;3.67;1.83;;;6.80;99.90;;;;;;4991575;28;20034;-74
2023/12/02 04:49:09;;;;;;;4.43;2.38;;;6.80;99.90;;;;;;4992273;28;20463;-73
2023/12/02 04:51:35;;;;;;;3.40;2.10;;;6.60;99.90;;;;;;4996269;28;20588;-73
2023/12/02 04:54:01;;;;;;;3.50;1.77;;;6.60;99.90;;;;;;4995283;28;20065;-73
2023/12/02 04:56:26;;;;;;;4.85;1.90;;;6.60;99.90;;;;;;4997458;28;20038;-73
2023/12/02 04:58:52;;;;;;;4.75;1.88;;;6.60;99.90;;;;;;4999488;28;20045;-73
2023/12/02 05:01:17;;;;;;;1.90;1.20;;;6.60;99.90;;;;;;4999033;28;20065;-73
2023/12/02 05:03:43;;;;;;;2.90;1.40;;;6.70;99.90;;;;;;4999453;28;20141;-73
2023/12/02 05:06:17;;;;;;;3.78;1.90;;;6.70;99.90;;;;;;4999321;28;20037;-73
2023/12/02 05:08:45;;;;;;;4.05;1.92;;;6.70;99.90;;;;;;4999776;28;20037;-73
2023/12/02 05:11:18;;;;;;;2.25;1.40;;;6.60;99.90;;;;;;4999449;28;20427;-73
2023/12/02 05:13:46;;;;;;;2.72;1.40;;;6.60;99.90;;;;;;4999260;28;20392;-73
2023/12/02 05:16:12;;;;;;;2.35;1.40;;;6.60;99.90;;;;;;4999354;28;20476;-73
2023/12/02 05:18:42;;;;;;;2.17;1.27;;;6.70;99.90;;;;;;4995857;28;20126;-73
2023/12/02 05:21:12;;;;;;;2.45;1.38;;;6.60;99.90;;;;;;4995366;28;20030;-73
2023/12/02 05:23:39;;;;;;;2.72;1.50;;;6.50;99.90;;;;;;4996311;28;20424;-73
2023/12/02 05:26:06;;;;;;;4.10;1.80;;;6.50;99.90;;;;;;4997095;28;20141;-73
2023/12/02 05:28:32;;;;;;;3.13;1.50;;;6.50;99.90;;;;;;4996867;28;20034;-73
2023/12/02 05:30:58;;;;;;;1.67;0.90;;;6.50;99.90;;;;;;4997065;28;20507;-73
2023/12/02 05:33:23;;;;;;;4.00;1.17;;;6.50;99.90;;;;;;4995789;28;20068;-73
2023/12/02 05:35:50;;;;;;;1.45;0.95;;;6.50;99.90;;;;;;4996139;28;20033;-73
2023/12/02 05:38:15;;;;;;;1.60;1.00;;;6.60;99.90;;;;;;4995712;28;20065;-73
2023/12/02 05:40:41;;;;;;;2.72;1.20;;;6.60;99.90;;;;;;4999409;28;20076;-73
2023/12/02 05:43:07;;;;;;;2.30;1.20;;;6.50;99.90;;;;;;4998242;28;20029;-73
2023/12/02 05:48:55;;;;;;;3.22;1.85;;;6.50;99.90;;;;;;4980166;28;20519;-73
2023/12/02 05:51:22;;;;;;;3.42;1.98;;;6.30;99.90;;;;;;4996627;28;20076;-73
2023/12/02 05:53:47;;;;;;;1.90;1.05;;;6.20;99.90;;;;;;4997758;28;21761;-73
2023/12/02 05:56:13;;;;;;;2.90;1.13;;;6.30;99.90;;;;;;4998323;28;20030;-73
2023/12/02 05:58:39;;;;;;;2.35;1.10;;;6.40;99.90;;;;;;4997344;28;20388;-73
2023/12/02 06:01:04;;;;;;;3.67;1.65;;;6.40;99.90;;;;;;4997159;28;20407;-73
2023/12/02 06:03:30;;;;;;;2.80;1.33;;;6.30;99.90;;;;;;4997236;28;20064;-73
2023/12/02 06:05:56;;;;;;;2.13;1.15;;;6.30;99.90;;;;;;4995284;28;20123;-73
2023/12/02 06:08:21;;;;;;;3.17;1.20;;;6.30;99.90;;;;;;4995117;28;20037;-73
2023/12/02 06:10:47;;;;;;;4.25;1.40;;;6.20;99.90;;;;;;4992840;28;20035;-73
2023/12/02 06:13:13;;;;;;;3.67;1.48;;;6.20;99.90;;;;;;4994204;28;20026;-73
2023/12/02 06:15:38;;;;;;;3.90;1.13;;;6.20;99.90;;;;;;4997636;28;20034;-73
2023/12/02 06:18:04;;;;;;;6.50;4.85;;;6.30;99.90;;;;;;4997612;28;20092;-73
2023/12/02 06:20:30;;;;;;;12.18;10.48;;;6.30;99.90;;;;;;4997416;28;20061;-73
2023/12/02 06:22:55;;;;;;;9.15;6.32;;;6.40;99.90;;;;;;4997422;28;20029;-74
2023/12/02 06:25:21;;;;;;;6.05;3.17;;;6.20;99.90;;;;;;4997688;28;20096;-73
2023/12/02 06:27:47;;;;;;;6.82;2.90;;;6.40;99.90;;;;;;4996599;28;20042;-73
2023/12/02 06:30:18;;;;;;;3.33;2.00;;;6.30;99.90;;;;;;4997354;28;20610;-73
2023/12/02 06:32:43;;;;;;;4.55;2.03;;;6.30;99.90;;;;;;4992868;28;21337;-73
2023/12/02 06:35:10;;;;;;;3.03;1.40;;;6.30;99.90;;;;;;4992760;28;20724;-73
2023/12/02 06:37:36;;;;;;;5.75;2.47;;;6.30;99.90;;;;;;4994146;28;20034;-73
2023/12/02 06:40:01;;;;;;;2.92;1.63;;;6.40;99.90;;;;;;4992387;28;20065;-73
2023/12/02 06:42:27;;;;;;;3.97;2.22;;;6.40;99.90;;;;;;4993958;28;20033;-73
2023/12/02 06:44:52;;;;;;;3.28;2.00;;;6.40;99.90;;;;;;4992641;28;20503;-73
2023/12/02 06:47:18;;;;;;;4.57;2.15;;;6.50;99.90;;;;;;4993667;28;20755;-73
2023/12/02 06:49:44;;;;;;;4.07;1.52;;;6.50;99.90;;;;;;4997298;28;20083;-76
2023/12/02 06:52:09;;;;;;;4.10;2.20;;;6.50;99.90;;;;;;4997575;28;20045;-74
2023/12/02 06:54:36;;;;;;;4.88;1.63;;;6.50;99.90;;;;;;4994111;28;20037;-76
2023/12/02 06:57:06;;;;;;;4.32;1.70;;;6.50;99.90;;;;;;4994277;28;20034;-76
2023/12/02 06:59:32;;;;;;;2.33;1.20;;;6.50;99.90;;;;;;4993576;28;20029;-74
2023/12/02 07:01:58;;;;;;;4.78;1.75;;;6.50;99.90;;;;;;4992666;28;20026;-75
2023/12/02 07:04:23;;;;;;;5.65;2.15;;;6.50;99.90;;;;;;4992687;28;20508;-76
2023/12/02 07:06:49;;;;;;;2.58;1.35;;;6.50;99.90;;;;;;4993074;28;20033;-75
2023/12/02 07:09:15;;;;;;;2.65;1.40;;;6.60;99.90;;;;;;4992760;28;20040;-75
2023/12/02 07:11:41;;;;;;;4.53;1.73;;;6.60;99.90;;;;;;4993502;28;20120;-75
2023/12/02 07:14:07;;;;;;;3.70;1.60;;;6.50;99.90;;;;;;4993499;28;20387;-75
2023/12/02 07:16:33;;;;;;;3.90;1.27;;;6.50;99.90;;;;;;4993237;28;20477;-76
2023/12/02 07:18:58;;;;;;;2.80;1.25;;;6.60;99.90;;;;;;4992666;28;20037;-76
2023/12/02 07:21:24;;;;;;;1.55;0.90;;;6.60;99.90;;;;;;4994060;28;20029;-76
2023/12/02 07:23:50;;;;;;;4.18;1.55;;;6.60;99.90;;;;;;4993296;28;20365;-75
2023/12/02 07:26:15;;;;;;;5.75;1.60;;;6.80;99.90;;;;;;4993250;28;20170;-76
2023/12/02 07:28:41;;;;;;;4.70;2.00;;;6.80;99.90;;;;;;4992128;28;20622;-76
2023/12/02 07:31:14;;;;;;;2.90;1.20;;;6.80;99.90;;;;;;5008059;28;20085;-76
2023/12/02 07:33:40;;;;;;;2.08;0.90;;;6.80;99.90;;;;;;4992085;28;20042;-76
2023/12/02 07:36:07;;;;;;;2.45;1.10;;;6.90;99.90;;;;;;4992521;28;20116;-75
2023/12/02 07:38:33;;;;;;;1.52;0.70;;;6.90;99.90;;;;;;4992503;28;20260;-75
2023/12/02 07:40:58;;;;;;;1.75;0.90;;;6.90;99.90;;;;;;4993087;28;20703;-76
2023/12/02 07:43:24;;;;;;;2.85;1.27;;;7.00;99.90;;;;;;4995127;28;20038;-77
2023/12/02 07:45:50;;;;;;;17.02;10.40;;;7.00;99.90;;;;;;4995460;28;20026;-74
2023/12/02 07:48:16;;;;;;;9.25;3.63;;;7.00;99.90;;;;;;4993341;28;20026;-76
2023/12/02 07:50:42;;;;;;;74.75;44.38;;;6.90;99.90;;;;;;4990664;28;20046;-74
2023/12/02 07:53:08;;;;;;;8.27;4.18;;;6.90;99.90;;;;;;4991489;28;20080;-76
2023/12/02 07:55:34;;;;;;;3.42;1.45;;;7.00;99.90;;;;;;4990772;28;20077;-75
2023/12/02 07:57:59;;;;;;;3.97;2.00;;;7.00;99.90;;;;;;4992425;28;20038;-76
2023/12/02 08:00:26;;;;;;;1.25;0.65;;;7.10;99.90;;;;;;4990228;28;21020;-74
2023/12/02 08:02:51;;;;;;;2.30;0.80;;;7.10;99.90;;;;;;4992396;28;20585;-76
2023/12/02 08:05:17;;;;;;;3.45;0.73;;;7.10;99.90;;;;;;4992546;28;20116;-75
2023/12/02 08:07:43;;;;;;;1.10;0.60;;;7.10;99.90;;;;;;4992158;28;20041;-75
2023/12/02 08:10:09;;;;;;;0.90;0.63;;;7.10;99.90;;;;;;4991264;28;20132;-74
2023/12/02 08:12:35;;;;;;;3.15;1.77;;;7.10;99.90;;;;;;4991052;28;20037;-75
2023/12/02 08:15:01;;;;;;;1.60;0.60;;;7.10;99.90;;;;;;4991579;28;20022;-75
2023/12/02 08:17:28;;;;;;;1.80;0.88;;;7.10;99.90;;;;;;4992086;28;20038;-75
2023/12/02 08:19:53;;;;;;;2.03;0.80;;;7.10;99.90;;;;;;4992047;28;20037;-75
2023/12/02 08:22:24;;;;;;;1.15;0.50;;;7.10;99.90;;;;;;4989289;28;20061;-75
2023/12/02 08:24:53;;;;;;;1.52;0.70;;;7.10;99.90;;;;;;4993525;28;20032;-74
2023/12/02 08:27:18;;;;;;;1.52;0.60;;;7.10;99.90;;;;;;4998760;28;20057;-75
2023/12/02 08:29:44;;;;;;;1.10;0.60;;;7.10;99.90;;;;;;4996393;28;20151;-76
2023/12/02 08:32:10;;;;;;;1.65;0.77;;;7.10;99.90;;;;;;4997869;28;20132;-74
2023/12/02 08:34:36;;;;;;;3.15;1.20;;;7.00;99.90;;;;;;4998331;28;20037;-77
2023/12/02 08:37:01;;;;;;;2.08;0.57;;;7.10;99.90;;;;;;4990862;28;20034;-74
2023/12/02 08:39:27;;;;;;;0.85;0.52;;;7.10;99.90;;;;;;4997884;28;20108;-75
2023/12/02 08:41:53;;;;;;;1.38;0.90;;;7.20;99.90;;;;;;5001016;28;20038;-74
2023/12/02 08:44:19;;;;;;;1.38;0.70;;;7.10;99.90;;;;;;5001073;28;20728;-75
2023/12/02 08:46:44;;;;;;;2.30;1.05;;;7.10;99.90;;;;;;5001476;28;20034;-75
2023/12/02 08:49:10;;;;;;;1.95;0.60;;;7.20;99.90;;;;;;5001465;28;20026;-75
2023/12/02 08:51:36;;;;;;;1.02;0.55;;;7.20;99.90;;;;;;5000360;28;20030;-75
2023/12/02 08:54:03;;;;;;;1.00;0.50;;;7.20;99.90;;;;;;5001342;28;20038;-76
2023/12/02 08:56:29;;;;;;;5.13;3.55;;;7.30;99.90;;;;;;4998393;28;20077;-76
2023/12/02 08:58:55;;;;;;;1.27;0.80;;;7.20;99.90;;;;;;5000458;28;20555;-74
2023/12/02 09:01:21;;;;;;;2.45;0.77;;;7.20;99.90;;;;;;5000905;28;20022;-75
2023/12/02 09:03:47;;;;;;;0.70;0.25;;;7.20;99.90;;;;;;5000059;28;20046;-73
2023/12/02 09:06:13;;;;;;;0.77;0.40;;;7.20;99.90;;;;;;5000223;28;20036;-74
2023/12/02 09:08:38;;;;;;;1.83;0.28;;;7.30;99.90;;;;;;5000384;28;20022;-73
2023/12/02 09:11:05;;;;;;;1.10;0.47;;;7.40;99.90;;;;;;5000171;28;20042;-74
2023/12/02 09:13:32;;;;;;;1.10;0.47;;;7.20;99.90;;;;;;5001118;28;20042;-74
2023/12/02 09:16:00;;;;;;;1.08;0.32;;;7.30;99.90;;;;;;4996596;28;20758;-74
2023/12/02 09:18:43;;;;;;;1.17;0.35;;;7.30;99.90;;;;;;4999196;28;20500;-74
2023/12/02 09:21:21;;;;;;;1.70;0.50;;;7.50;99.90;;;;;;4996121;28;20184;-74
2023/12/02 09:23:51;;;;;;;1.08;0.30;;;7.60;99.90;;;;;;5009048;28;20076;-75
2023/12/02 09:26:41;;;;;;;0.47;0.20;;;7.40;99.90;;;;;;5010444;28;20026;-74
2023/12/02 09:29:06;;;;;;;0.70;0.40;;;7.30;99.90;;;;;;5012880;28;20490;-74
2023/12/02 09:31:32;;;;;;;0.52;0.50;;;7.20;99.90;;;;;;5010790;28;20038;-75
2023/12/02 09:34:04;;;;;;;0.77;0.40;;;7.10;99.90;;;;;;5001258;28;20074;-74
2023/12/02 09:36:41;;;;;;;1.63;0.73;;;7.00;99.90;;;;;;4993758;28;20044;-73
2023/12/02 09:39:09;;;;;;;0.93;0.30;;;7.10;99.90;;;;;;4994636;28;20342;-74
2023/12/02 09:41:48;;;;;;;6.15;3.25;;;7.10;99.90;;;;;;4993689;28;20037;-74
2023/12/02 09:44:28;;;;;;;2.85;1.58;;;7.10;99.90;;;;;;4994338;28;20460;-74
2023/12/02 09:46:56;;;;;;;1.30;0.77;;;7.10;99.90;;;;;;4995931;28;20029;-74
2023/12/02 09:49:49;;;;;;;1.40;0.77;;;7.00;99.90;;;;;;4997415;28;20038;-74
2023/12/02 09:52:47;;;;;;;2.15;0.60;;;6.90;99.90;;;;;;4996880;28;20136;-73
2023/12/02 09:55:13;;;;;;;1.90;0.50;;;6.90;99.90;;;;;;4997154;28;20120;-74
2023/12/02 09:58:02;;;;;;;1.67;0.43;;;6.80;99.90;;;;;;4995164;28;20337;-73
2023/12/02 10:00:31;;;;;;;1.73;0.70;;;6.90;99.90;;;;;;4991279;28;20045;-74
2023/12/02 10:03:02;;;;;;;1.58;0.77;;;6.90;99.90;;;;;;4995333;28;20034;-76
2023/12/02 10:05:37;;;;;;;2.25;0.55;;;6.80;99.90;;;;;;4996423;28;20111;-76
2023/12/02 10:08:32;;;;;;;5.60;3.35;;;6.90;99.90;;;;;;4994718;28;20046;-77
2023/12/02 10:11:09;;;;;;;5.93;3.45;;;7.00;99.90;;;;;;4993293;28;20049;-75
2023/12/02 10:13:48;;;;;;;0.65;0.32;;;6.90;99.90;;;;;;4988568;28;20567;-75
2023/12/02 10:16:18;;;;;;;3.15;1.20;;;6.80;99.90;;;;;;4987093;28;20022;-75
2023/12/02 10:18:51;;;;;;;0.98;0.50;;;6.90;99.90;;;;;;4992183;28;20037;-73
2023/12/02 10:21:20;;;;;;;1.00;0.50;;;6.70;99.90;;;;;;4991314;28;20048;-75
2023/12/02 10:24:20;;;;;;;1.00;0.47;;;6.80;99.90;;;;;;4988104;28;20103;-75
2023/12/02 10:27:03;;;;;;;1.13;0.77;;;6.80;99.90;;;;;;4979872;28;20054;-73
2023/12/02 10:29:35;;;;;;;2.25;1.20;;;6.70;99.90;;;;;;4992698;28;20038;-72
2023/12/02 10:32:33;;;;;;;9.40;7.47;;;6.70;99.90;;;;;;4993888;28;20038;-73
2023/12/02 10:35:08;;;;;;;3.13;2.00;;;6.70;99.90;;;;;;4995011;28;20041;-75
2023/12/02 10:37:40;;;;;;;2.42;1.27;;;6.60;99.90;;;;;;4996722;28;20396;-74
2023/12/02 10:40:09;;;;;;;7.05;5.13;;;6.60;99.90;;;;;;4995306;28;20113;-75
2023/12/02 10:42:55;;;;;;;4.35;2.30;;;6.60;99.90;;;;;;4996548;28;20950;-75
2023/12/02 10:45:25;;;;;;;20.25;12.60;;;6.60;99.90;;;;;;4994971;28;20087;-77
2023/12/02 10:47:52;;;;;;;28.67;20.17;;;6.50;99.90;;;;;;4991807;28;20042;-75
2023/12/02 10:50:17;;;;;;;26.55;15.90;;;6.40;99.90;;;;;;4993829;28;20091;-74
2023/12/02 10:53:00;;;;;;;27.30;18.67;;;6.40;99.90;;;;;;4996411;28;20697;-75
2023/12/02 10:55:27;;;;;;;84.80;60.00;;;6.30;99.90;;;;;;4996100;28;20068;-73
2023/12/02 10:57:56;;;;;;;56.85;38.85;;;6.40;99.90;;;;;;4997270;28;20504;-73
2023/12/02 11:00:24;;;;;;;42.60;29.83;;;6.60;99.90;;;;;;4994288;28;20105;-74
2023/12/02 11:02:51;;;;;;;28.23;19.52;;;6.50;99.90;;;;;;5011193;28;20392;-74
2023/12/02 11:05:21;;;;;;;12.30;8.13;;;6.70;99.90;;;;;;4994110;28;20901;-73
2023/12/02 11:08:14;;;;;;;15.40;11.57;;;6.50;99.90;;;;;;4997655;28;20029;-73
2023/12/02 11:10:47;;;;;;;10.68;8.05;;;6.50;99.90;;;;;;4995881;28;20746;-74
2023/12/02 11:13:19;;;;;;;7.88;5.07;;;6.60;99.90;;;;;;4997606;28;20095;-73
2023/12/02 11:16:28;;;;;;;4.22;1.92;;;6.60;99.90;;;;;;4995781;28;20032;-75
2023/12/02 11:19:15;;;;;;;2.65;0.93;;;6.60;99.90;;;;;;4995762;28;20123;-73
2023/12/02 11:22:14;;;;;;;2.55;0.68;;;6.50;99.90;;;;;;4995168;28;20038;-73
2023/12/02 11:25:06;;;;;;;7.28;4.78;;;6.40;99.90;;;;;;4995983;28;20046;-73
2023/12/02 11:28:05;;;;;;;2.92;1.70;;;6.70;99.90;;;;;;4993419;28;20064;-73
2023/12/02 11:30:55;;;;;;;0.88;0.40;;;6.50;99.90;;;;;;4988939;28;20629;-73
2023/12/02 11:33:51;;;;;;;0.60;0.30;;;6.30;99.90;;;;;;4993515;28;20041;-72
2023/12/02 11:36:37;;;;;;;0.20;0.10;;;6.20;99.90;;;;;;4994161;28;20058;-73
2023/12/02 11:39:30;;;;;;;1.55;0.20;;;6.30;99.90;;;;;;4992526;28;20060;-73
2023/12/02 11:41:59;;;;;;;3.47;2.33;;;6.30;99.90;;;;;;4990977;28;20049;-74
2023/12/02 11:44:43;;;;;;;1.13;0.57;;;6.30;99.90;;;;;;4993067;28;20115;-73
2023/12/02 11:50:43;;;;;;;0.38;0.28;;;6.20;99.90;;;;;;4979007;28;20096;-73
2023/12/02 11:53:45;;;;;;;0.40;0.20;;;6.20;99.90;;;;;;4993539;28;20033;-74
2023/12/02 11:56:13;;;;;;;1.58;0.10;;;6.30;99.90;;;;;;4987546;28;20616;-75
2023/12/02 11:58:52;;;;;;;0.45;0.17;;;6.50;99.90;;;;;;4991679;28;20041;-76
2023/12/02 12:01:17;;;;;;;1.55;0.20;;;6.40;99.90;;;;;;4991742;28;20033;-73
2023/12/02 12:04:07;;;;;;;0.52;0.10;;;6.40;99.90;;;;;;4990651;28;20058;-73
2023/12/02 12:06:55;;;;;;;2.17;0.73;;;6.50;99.90;;;;;;4991882;28;20049;-73
2023/12/02 12:09:28;;;;;;;0.30;0.10;;;6.30;99.90;;;;;;4976625;28;20034;-74
2023/12/02 12:11:56;;;;;;;1.00;0.60;;;6.30;99.90;;;;;;4988012;28;20604;-74
2023/12/02 12:14:23;;;;;;;0.80;0.32;;;6.20;99.90;;;;;;4989863;28;20514;-75
2023/12/02 12:16:50;;;;;;;0.00;0.00;;;6.20;99.90;;;;;;4988153;28;20045;-74
2023/12/02 12:19:15;;;;;;;0.40;0.10;;;6.20;99.90;;;;;;4988200;28;20620;-74
2023/12/02 12:21:42;;;;;;;0.20;0.10;;;6.20;99.90;;;;;;4988754;28;20423;-73
2023/12/02 12:24:08;;;;;;;0.52;0.20;;;6.30;99.90;;;;;;4989552;28;20026;-76
2023/12/02 12:26:33;;;;;;;0.10;0.10;;;6.30;99.90;;;;;;4990149;28;20666;-73
2023/12/02 12:29:01;;;;;;;0.55;0.25;;;6.20;99.90;;;;;;4989091;28;20703;-73
2023/12/02 12:31:30;;;;;;;0.73;0.10;;;6.30;99.90;;;;;;4989017;28;20054;-73
2023/12/02 12:33:56;;;;;;;1.65;0.88;;;6.40;99.90;;;;;;4987024;28;20688;-73
2023/12/02 12:36:29;;;;;;;0.63;0.28;;;6.40;99.90;;;;;;4988472;28;20232;-73
2023/12/02 12:38:59;;;;;;;0.15;0.00;;;6.40;99.90;;;;;;4988884;28;20041;-73
2023/12/02 12:41:26;;;;;;;1.40;0.60;;;6.50;99.90;;;;;;4990052;28;20220;-73
2023/12/02 12:43:53;;;;;;;1.08;0.40;;;6.40;99.90;;;;;;4982504;28;20049;-74
2023/12/02 12:46:19;;;;;;;0.70;0.17;;;6.40;99.90;;;;;;4989186;28;20396;-74
2023/12/02 12:48:51;;;;;;;0.00;0.00;;;6.50;99.90;;;;;;4989647;28;20041;-72
2023/12/02 12:51:22;;;;;;;0.88;0.30;;;6.60;99.90;;;;;;4989109;28;20042;-73
2023/12/02 12:54:08;;;;;;;0.35;0.22;;;6.70;99.90;;;;;;4984727;28;20076;-73
2023/12/02 12:56:40;;;;;;;0.10;0.10;;;6.60;99.90;;;;;;4991072;28;20041;-74
2023/12/02 12:59:14;;;;;;;0.28;0.10;;;6.80;99.90;;;;;;4991779;28;20022;-73
2023/12/02 13:02:01;;;;;;;0.30;0.15;;;6.80;99.90;;;;;;4990818;28;20048;-75
2023/12/02 13:04:33;;;;;;;0.00;0.00;;;7.00;99.90;;;;;;4988542;28;20129;-75
2023/12/02 13:07:12;;;;;;;0.68;0.25;;;7.20;99.90;;;;;;4989878;28;20096;-73
2023/12/02 13:09:51;;;;;;;0.55;0.15;;;7.20;99.90;;;;;;4990632;28;20540;-73